Time;durP1;ratioP1;P1;durP2;ratioP2;P2;SDS_P1;SDS_P2;PMS_P1;PMS_P2;Temp;Humidity;BMP_temperature;BMP_pressure;BME280_temperature;BME280_humidity;BME280_pressure;Samples;Min_cycle;Max_cycle;Signal;HPM_P1;HPM_P2
2023/02/28 00:01:59;;;;;;;11.00;5.68;;;1.30;99.90;;;0.17;90.84;102346.78;4169330;28;20080;-72
2023/02/28 00:04:00;;;;;;;10.88;6.47;;;1.20;99.90;;;0.18;91.19;102338.09;4170571;28;20097;-73
2023/02/28 00:06:05;;;;;;;7.85;4.97;;;1.30;99.90;;;0.13;91.28;102344.34;4169296;28;20409;-73
2023/02/28 00:08:06;;;;;;;11.75;5.82;;;1.20;99.90;;;0.10;91.36;102334.91;4170294;28;20026;-73
2023/02/28 00:10:11;;;;;;;13.00;6.22;;;1.20;99.90;;;0.10;91.35;102339.25;4170226;28;20045;-73
2023/02/28 00:12:12;;;;;;;;;;;1.20;99.90;;;0.08;91.42;102336.72;4170601;28;20052;-73
2023/02/28 00:14:12;;;;;;;10.93;5.20;;;1.10;99.90;;;0.05;91.62;102335.97;4185710;28;19928;-73
2023/02/28 00:16:19;;;;;;;8.93;5.60;;;1.10;99.90;;;0.07;91.98;102335.00;4185535;28;20025;-73
2023/02/28 00:18:20;;;;;;;10.32;6.10;;;1.10;99.90;;;0.03;91.54;102337.78;4185445;28;20020;-73
2023/02/28 00:20:21;;;;;;;11.95;5.53;;;1.10;99.90;;;0.00;91.93;102342.13;4179645;28;20076;-73
2023/02/28 00:22:22;;;;;;;19.75;7.32;;;1.10;99.90;;;0.02;92.00;102341.25;4168950;28;20552;-73
2023/02/28 00:24:23;;;;;;;10.45;6.25;;;1.00;99.90;;;-0.05;92.03;102341.44;4185444;28;20076;-73
2023/02/28 00:26:24;;;;;;;8.93;5.90;;;1.00;99.90;;;-0.11;91.81;102341.66;4170185;28;20072;-73
2023/02/28 00:28:25;;;;;;;14.63;5.95;;;0.90;99.90;;;-0.14;92.22;102333.97;4178400;28;20123;-73
2023/02/28 00:30:26;;;;;;;13.93;5.80;;;0.90;99.90;;;-0.10;92.32;102343.34;4170188;28;20028;-73
2023/02/28 00:32:27;;;;;;;13.32;5.68;;;0.90;99.90;;;-0.16;92.69;102340.97;4170457;28;20049;-73
2023/02/28 00:34:28;;;;;;;8.07;5.20;;;0.90;99.90;;;-0.16;92.82;102337.50;4168752;28;20037;-73
2023/02/28 00:36:29;;;;;;;8.23;5.45;;;0.90;99.90;;;-0.18;92.64;102352.28;4168818;28;20057;-73
2023/02/28 00:38:30;;;;;;;10.45;5.40;;;0.90;99.90;;;-0.21;92.88;102350.59;4177981;28;20022;-73
2023/02/28 00:40:31;;;;;;;10.98;5.75;;;0.80;99.90;;;-0.18;92.81;102350.50;4169948;28;20033;-73
2023/02/28 00:42:34;;;;;;;8.23;5.22;;;0.80;99.90;;;-0.13;92.84;102338.25;4169523;28;20037;-73
2023/02/28 00:44:35;;;;;;;9.13;5.47;;;0.90;99.90;;;-0.12;92.74;102347.72;4168677;28;20061;-73
2023/02/28 00:46:36;;;;;;;10.77;5.05;;;0.90;99.90;;;-0.18;92.54;102350.50;4170414;28;20484;-73
2023/02/28 00:48:37;;;;;;;8.88;5.70;;;0.90;99.90;;;-0.22;92.78;102345.47;4173414;28;20145;-73
2023/02/28 00:50:38;;;;;;;8.35;5.28;;;0.90;99.90;;;-0.27;92.69;102350.78;4168453;28;20534;-73
2023/02/28 00:52:38;;;;;;;9.63;5.10;;;0.80;99.90;;;-0.29;92.70;102357.78;4168606;28;20036;-73
2023/02/28 00:54:39;;;;;;;13.02;5.90;;;0.80;99.90;;;-0.33;93.28;102355.34;4178275;28;20045;-73
2023/02/28 00:56:40;;;;;;;12.15;6.95;;;0.70;99.90;;;-0.21;93.12;102354.97;4179187;28;20037;-73
2023/02/28 00:58:41;;;;;;;9.70;5.57;;;0.70;99.90;;;-0.25;93.03;102354.22;4168412;28;20112;-73
2023/02/28 01:00:42;;;;;;;8.98;4.93;;;0.80;99.90;;;-0.34;93.03;102354.50;4184895;28;20029;-73
2023/02/28 01:02:43;;;;;;;7.45;4.95;;;0.70;99.90;;;-0.37;93.11;102362.38;4168457;28;20025;-73
2023/02/28 01:04:44;;;;;;;13.48;5.30;;;0.70;99.90;;;-0.37;93.65;102358.91;4169791;28;20053;-73
2023/02/28 01:06:45;;;;;;;8.82;5.20;;;0.60;99.90;;;-0.33;93.30;102355.34;4174351;28;20504;-73
2023/02/28 01:08:46;;;;;;;11.40;6.03;;;0.70;99.90;;;-0.39;93.32;102351.19;4167628;28;20034;-73
2023/02/28 01:10:47;;;;;;;8.98;5.20;;;0.70;99.90;;;-0.39;93.47;102353.78;4159253;28;20444;-73
2023/02/28 01:12:48;;;;;;;8.82;5.20;;;0.70;99.90;;;-0.36;93.71;102358.03;4178890;28;20056;-73
2023/02/28 01:14:49;;;;;;;7.40;4.70;;;0.70;99.90;;;-0.34;93.58;102356.22;4185779;28;20021;-73
2023/02/28 01:16:51;;;;;;;9.38;5.75;;;0.70;99.90;;;-0.33;93.10;102350.97;4178220;28;20065;-73
2023/02/28 01:18:52;;;;;;;10.20;5.20;;;0.70;99.90;;;-0.39;93.47;102346.03;4169499;28;20138;-73
2023/02/28 01:20:54;;;;;;;7.85;4.95;;;0.70;99.90;;;-0.41;93.48;102352.97;4168188;28;20083;-73
2023/02/28 01:22:54;;;;;;;9.52;5.05;;;0.70;99.90;;;-0.46;93.83;102339.31;4169183;28;20053;-73
2023/02/28 01:24:55;;;;;;;9.48;4.90;;;0.60;99.90;;;-0.49;93.63;102347.19;4168106;28;20033;-73
2023/02/28 01:26:56;;;;;;;10.05;5.15;;;0.60;99.90;;;-0.51;93.67;102341.22;4169439;28;20065;-73
2023/02/28 01:28:58;;;;;;;10.07;5.80;;;0.60;99.90;;;-0.46;93.97;102349.69;4168109;28;20036;-72
2023/02/28 01:30:59;;;;;;;12.35;5.85;;;0.60;99.90;;;-0.48;93.78;102342.84;4169190;28;20048;-73
2023/02/28 01:33:00;;;;;;;10.85;4.88;;;0.60;99.90;;;-0.54;93.78;102337.84;4171397;28;20021;-73
2023/02/28 01:35:01;;;;;;;8.98;4.78;;;0.50;99.90;;;-0.53;93.80;102348.16;4178376;28;20032;-72
2023/02/28 01:37:03;;;;;;;12.85;5.18;;;0.50;99.90;;;-0.59;93.97;102340.56;4177878;28;20052;-73
2023/02/28 01:39:04;;;;;;;12.65;6.43;;;0.50;99.90;;;-0.58;94.04;102350.06;4154203;28;20061;-73
2023/02/28 01:41:06;;;;;;;9.60;4.47;;;0.50;99.90;;;-0.61;94.24;102350.13;4167798;28;20113;-73
2023/02/28 01:43:21;;;;;;;8.82;4.95;;;0.40;99.90;;;-0.62;94.36;102348.44;4167535;28;20495;-73
2023/02/28 01:45:29;;;;;;;9.23;5.10;;;0.40;99.90;;;-0.66;94.68;102357.22;4169687;28;20537;-73
2023/02/28 01:47:42;;;;;;;7.82;5.35;;;0.40;99.90;;;-0.62;94.30;102354.47;4178356;28;20037;-73
2023/02/28 01:49:43;;;;;;;8.50;4.97;;;0.40;99.90;;;-0.65;94.37;102345.94;4169078;28;20109;-73
2023/02/28 01:51:54;;;;;;;9.15;5.63;;;0.40;99.90;;;-0.66;94.61;102349.44;4167796;28;20021;-73
2023/02/28 01:54:05;;;;;;;10.75;5.07;;;0.40;99.90;;;-0.73;94.71;102350.50;4170071;28;20026;-73
2023/02/28 01:56:09;;;;;;;7.25;5.07;;;0.40;99.90;;;-0.68;94.91;102348.63;4183150;28;20142;-73
2023/02/28 01:58:10;;;;;;;10.45;5.10;;;0.30;99.90;;;-0.75;94.83;102345.38;4167144;28;20037;-73
2023/02/28 02:00:15;;;;;;;9.07;4.97;;;0.40;99.90;;;-0.74;94.87;102348.78;4183836;28;20104;-73
2023/02/28 02:02:20;;;;;;;8.13;4.60;;;0.40;99.90;;;-0.75;94.86;102354.88;4167673;28;20029;-72
2023/02/28 02:04:26;;;;;;;9.18;5.20;;;0.30;99.90;;;-0.76;94.99;102355.78;4167656;28;20021;-73
2023/02/28 02:06:43;;;;;;;9.40;5.22;;;0.30;99.90;;;-0.72;94.82;102360.81;4171219;28;20044;-73
2023/02/28 02:08:44;;;;;;;10.13;4.88;;;0.30;99.90;;;-0.76;95.12;102356.63;4171475;28;20036;-73
2023/02/28 02:10:57;;;;;;;8.80;5.40;;;0.30;99.90;;;-0.72;95.10;102372.94;4184014;28;20428;-73
2023/02/28 02:13:41;;;;;;;9.10;5.78;;;0.30;99.90;;;-0.70;94.91;102364.22;4184957;28;20032;-73
2023/02/28 02:16:15;;;;;;;7.72;4.70;;;0.30;99.90;;;-0.73;95.33;102360.88;4185385;28;20033;-73
2023/02/28 02:18:16;;;;;;;10.25;4.60;;;0.30;99.90;;;-0.80;95.14;102360.19;4168511;28;20026;-73
2023/02/28 02:20:32;;;;;;;7.25;4.57;;;0.30;99.90;;;-0.82;95.36;102369.75;4170792;28;20397;-73
2023/02/28 02:22:51;;;;;;;11.93;4.97;;;0.20;99.90;;;-0.78;95.64;102370.53;4172262;28;20117;-73
2023/02/28 02:25:18;;;;;;;10.10;5.47;;;0.20;99.90;;;-0.72;95.56;102362.56;4175537;28;20025;-73
2023/02/28 02:27:39;;;;;;;10.10;4.88;;;0.30;99.90;;;-0.74;95.46;102359.16;4176916;28;20109;-73
2023/02/28 02:29:51;;;;;;;12.48;5.45;;;0.30;99.90;;;-0.80;95.49;102352.41;4173733;28;20025;-73
2023/02/28 02:32:50;;;;;;;12.85;5.78;;;0.30;99.90;;;-0.83;95.62;102359.41;4187986;28;20557;-73
2023/02/28 02:35:18;;;;;;;8.18;4.13;;;0.20;99.90;;;-0.80;95.75;102359.34;4180698;28;20033;-73
2023/02/28 02:37:38;;;;;;;6.70;4.95;;;0.30;99.90;;;-0.87;95.98;102358.69;4181055;28;20029;-73
2023/02/28 02:39:50;;;;;;;8.55;4.78;;;0.20;99.90;;;-0.85;96.30;102356.03;4172282;28;20081;-73
2023/02/28 02:41:56;;;;;;;10.05;5.20;;;0.20;99.90;;;-0.83;95.98;102355.09;4171560;28;20034;-73
2023/02/28 02:44:06;;;;;;;10.13;5.00;;;0.30;99.90;;;-0.86;95.94;102352.59;4170378;28;20061;-72
2023/02/28 02:46:42;;;;;;;9.35;5.18;;;0.20;99.90;;;-0.88;95.92;102363.91;4172084;28;20029;-73
2023/02/28 02:48:45;;;;;;;7.25;4.40;;;0.20;99.90;;;-0.93;96.01;102366.63;4172916;28;20033;-73
2023/02/28 02:50:52;;;;;;;7.57;4.75;;;0.10;99.90;;;-1.00;96.16;102356.47;4170550;28;20104;-73
2023/02/28 02:52:58;;;;;;;10.30;4.90;;;0.10;99.90;;;-0.97;96.72;102361.56;4170399;28;20108;-73
2023/02/28 02:55:02;;;;;;;7.72;4.60;;;0.10;99.90;;;-1.01;96.59;102359.94;4181816;28;20029;-73
2023/02/28 02:57:20;;;;;;;7.50;5.00;;;0.10;99.90;;;-1.05;96.43;102353.16;4178584;28;20025;-73
2023/02/28 02:59:24;;;;;;;10.70;5.93;;;0.00;99.90;;;-1.03;96.59;102354.81;4170426;28;20053;-73
2023/02/28 03:01:28;;;;;;;8.20;5.97;;;0.00;99.90;;;-0.95;96.89;102352.00;4170442;28;20047;-73
2023/02/28 03:03:32;;;;;;;6.30;4.90;;;0.00;99.90;;;-1.01;96.68;102355.63;4170137;28;20030;-73
2023/02/28 03:05:45;;;;;;;12.60;5.30;;;0.00;99.90;;;-1.02;96.71;102358.25;4170242;28;20062;-72
2023/02/28 03:07:47;;;;;;;13.23;5.30;;;0.00;99.90;;;-1.06;97.04;102365.25;4173823;28;20037;-73
2023/02/28 03:09:52;;;;;;;8.98;5.38;;;0.00;99.90;;;-1.04;97.26;102370.38;4170143;28;20033;-73
2023/02/28 03:11:56;;;;;;;13.60;5.57;;;0.00;99.90;;;-1.06;97.10;102372.19;4190040;28;20036;-73
2023/02/28 03:14:16;;;;;;;9.07;5.15;;;0.00;99.90;;;-1.09;97.21;102372.25;4186623;28;20108;-72
2023/02/28 03:16:54;;;;;;;7.75;5.03;;;0.00;99.90;;;-1.08;97.51;102373.97;4185238;28;20036;-73
2023/02/28 03:19:17;;;;;;;7.13;4.72;;;0.00;99.90;;;-1.08;97.60;102364.47;4171270;28;20017;-73
2023/02/28 03:21:30;;;;;;;7.85;4.93;;;0.00;99.90;;;-1.14;97.38;102368.06;4171058;28;20079;-73
2023/02/28 03:23:48;;;;;;;10.38;4.78;;;0.00;99.90;;;-1.20;97.49;102360.47;4169777;28;20464;-73
2023/02/28 03:26:05;;;;;;;7.57;5.13;;;-0.10;99.90;;;-1.24;97.69;102365.75;4169984;28;20026;-73
2023/02/28 03:28:42;;;;;;;8.32;5.13;;;-0.10;99.90;;;-1.27;97.99;102358.06;4182283;28;20044;-73
2023/02/28 03:31:20;;;;;;;10.13;5.57;;;-0.10;99.90;;;-1.22;98.20;102359.66;4169498;28;20018;-73
2023/02/28 03:33:28;;;;;;;9.73;5.75;;;-0.20;99.90;;;-1.24;98.34;102363.16;4177537;28;20104;-73
2023/02/28 03:35:39;;;;;;;8.93;5.38;;;-0.20;99.90;;;-1.25;97.96;102364.91;4186315;28;20052;-73
2023/02/28 03:37:44;;;;;;;8.23;5.70;;;-0.20;99.90;;;-1.19;97.99;102364.75;4173844;28;20068;-73
2023/02/28 03:40:01;;;;;;;7.90;5.47;;;-0.10;99.90;;;-1.08;98.32;102368.78;4176766;28;20507;-73
2023/02/28 03:42:11;;;;;;;11.38;5.40;;;-0.10;99.90;;;-1.14;98.25;102370.66;4164068;28;20034;-73
2023/02/28 03:44:24;;;;;;;8.05;4.95;;;-0.10;99.90;;;-1.11;98.22;102370.56;4172608;28;20021;-73
2023/02/28 03:46:30;;;;;;;9.93;5.93;;;-0.10;99.90;;;-1.12;98.36;102358.50;4171434;28;20041;-73
2023/02/28 03:49:05;;;;;;;11.13;5.15;;;0.00;99.90;;;-1.18;97.93;102358.69;4175083;28;20029;-73
2023/02/28 03:51:10;;;;;;;12.07;5.88;;;0.00;99.90;;;-1.18;97.95;102368.19;4169759;28;20034;-73
2023/02/28 03:53:16;;;;;;;10.43;5.57;;;-0.10;99.90;;;-1.22;98.15;102364.81;4170880;28;20029;-73
2023/02/28 03:55:19;;;;;;;10.82;5.85;;;-0.10;99.90;;;-1.10;98.23;102366.22;4184163;28;20079;-73
2023/02/28 03:57:50;;;;;;;13.23;6.03;;;-0.10;99.90;;;-1.12;98.26;102368.88;4176573;28;20393;-72
2023/02/28 04:00:04;;;;;;;8.05;5.65;;;-0.10;99.90;;;-1.18;97.99;102363.88;4169627;28;20412;-72
2023/02/28 04:02:05;;;;;;;9.38;6.10;;;0.00;99.90;;;-1.17;98.51;102360.38;4169414;28;20022;-73
2023/02/28 04:04:06;;;;;;;9.65;6.00;;;0.00;99.90;;;-1.21;98.38;102363.94;4169387;28;20571;-73
2023/02/28 04:06:16;;;;;;;10.40;6.15;;;-0.10;99.90;;;-1.23;98.52;102365.75;4185641;28;20032;-73
2023/02/28 04:08:17;;;;;;;10.77;5.30;;;-0.10;99.90;;;-1.28;98.86;102383.09;4183091;28;20041;-73
2023/02/28 04:10:18;;;;;;;11.23;6.55;;;-0.20;99.90;;;-1.28;98.84;102372.75;4187177;28;20041;-73
2023/02/28 04:12:19;;;;;;;12.20;6.38;;;-0.20;99.90;;;-1.15;99.23;102368.09;4185588;28;20076;-72
2023/02/28 04:14:20;;;;;;;9.25;7.03;;;-0.10;99.90;;;-1.18;98.56;102374.22;4185805;28;20526;-73
2023/02/28 04:16:21;;;;;;;10.70;6.03;;;-0.10;99.90;;;-1.23;98.97;102381.28;4185784;28;20057;-73
2023/02/28 04:18:22;;;;;;;16.80;6.85;;;-0.10;99.90;;;-1.26;98.85;102378.75;4169190;28;20108;-72
2023/02/28 04:20:23;;;;;;;9.38;5.90;;;-0.10;99.90;;;-1.26;99.18;102375.31;4169331;28;20026;-72
2023/02/28 04:22:26;;;;;;;13.52;7.20;;;-0.20;99.90;;;-1.30;99.02;102371.97;4169299;28;20115;-73
2023/02/28 04:24:29;;;;;;;10.67;6.20;;;-0.20;99.90;;;-1.35;99.06;102368.66;4168959;28;20033;-73
2023/02/28 04:26:35;;;;;;;9.38;6.18;;;-0.20;99.90;;;-1.37;99.32;102367.81;4170606;28;20092;-73
2023/02/28 04:28:38;;;;;;;12.45;6.25;;;-0.20;99.90;;;-1.39;99.35;102373.94;4177138;28;20493;-72
2023/02/28 04:30:39;;;;;;;8.73;6.40;;;-0.30;99.90;;;-1.37;99.46;102375.59;4168962;28;20036;-73
2023/02/28 04:32:40;;;;;;;13.07;6.03;;;-0.30;99.90;;;-1.38;100.00;102373.06;4170314;28;20033;-72
2023/02/28 04:34:40;;;;;;;10.77;6.00;;;-0.30;99.90;;;-1.44;99.88;102368.88;4170035;28;20080;-72
2023/02/28 04:36:42;;;;;;;9.23;6.13;;;-0.30;99.90;;;-1.49;99.78;102373.31;4173444;28;20025;-73
2023/02/28 04:38:43;;;;;;;9.98;7.40;;;-0.40;99.90;;;-1.52;99.99;102375.16;4173872;28;20049;-73
2023/02/28 04:40:44;;;;;;;9.65;6.60;;;-0.40;99.90;;;-1.51;100.00;102375.09;4168621;28;20021;-73
2023/02/28 04:42:45;;;;;;;11.00;6.72;;;-0.40;99.90;;;-1.52;100.00;102370.81;4169521;28;20436;-73
2023/02/28 04:44:47;;;;;;;12.02;7.28;;;-0.40;99.90;;;-1.55;100.00;102383.81;4168929;28;20037;-73
2023/02/28 04:46:48;;;;;;;10.02;6.45;;;-0.40;99.90;;;-1.49;100.00;102378.50;4174108;28;20028;-73
2023/02/28 04:48:50;;;;;;;11.13;7.18;;;-0.40;99.90;;;-1.53;100.00;102382.06;4170396;28;20045;-73
2023/02/28 04:50:51;;;;;;;15.50;7.63;;;-0.40;99.90;;;-1.53;100.00;102386.38;4169917;28;20029;-73
2023/02/28 04:52:52;;;;;;;12.45;7.05;;;-0.40;99.90;;;-1.51;100.00;102384.59;4168545;28;20460;-72
2023/02/28 04:54:53;;;;;;;10.73;7.28;;;-0.40;99.90;;;-1.58;100.00;102389.06;4180168;28;20067;-73
2023/02/28 04:56:54;;;;;;;9.27;6.95;;;-0.40;99.90;;;-1.64;100.00;102386.63;4179819;28;20029;-72
2023/02/28 04:58:55;;;;;;;10.23;6.47;;;-0.50;99.90;;;-1.67;100.00;102394.47;4169693;28;20096;-73
2023/02/28 05:01:15;;;;;;;11.13;6.63;;;-0.60;99.90;;;-1.71;100.00;102395.47;4169450;28;20040;-73
2023/02/28 05:03:16;;;;;;;10.57;6.57;;;-0.60;99.90;;;-1.78;100.00;102399.06;4168535;28;20030;-73
2023/02/28 05:05:18;;;;;;;13.32;6.70;;;-0.70;99.90;;;-1.82;100.00;102402.59;4168269;28;20112;-73
2023/02/28 05:07:19;;;;;;;12.18;7.03;;;-0.70;99.90;;;-1.83;100.00;102408.69;4170175;28;20018;-73
2023/02/28 05:09:20;;;;;;;8.38;6.40;;;-0.80;99.90;;;-1.86;100.00;102404.44;4169610;28;20063;-73
2023/02/28 05:11:33;;;;;;;11.00;6.53;;;-0.80;99.90;;;-1.88;100.00;102401.03;4168254;28;20049;-72
2023/02/28 05:13:35;;;;;;;12.55;7.30;;;-0.80;99.90;;;-1.96;100.00;102396.91;4157037;28;20116;-73
2023/02/28 05:15:36;;;;;;;10.57;6.95;;;-0.80;99.90;;;-1.93;100.00;102417.53;4184999;28;20032;-74
2023/02/28 05:17:37;;;;;;;11.32;6.30;;;-0.90;99.90;;;-1.97;100.00;102416.75;4175665;28;20021;-72
2023/02/28 05:19:38;;;;;;;11.13;7.85;;;-0.90;99.90;;;-2.04;100.00;102412.63;4166110;28;20029;-72
2023/02/28 05:21:41;;;;;;;12.05;7.57;;;-0.90;99.90;;;-2.01;100.00;102422.91;4168338;28;20026;-73
2023/02/28 05:23:42;;;;;;;10.80;6.70;;;-0.90;99.90;;;-2.05;100.00;102429.00;4169342;28;20500;-73
2023/02/28 05:25:43;;;;;;;12.88;7.38;;;-1.00;99.90;;;-2.05;100.00;102418.69;4167983;28;20276;-73
2023/02/28 05:27:44;;;;;;;14.25;7.88;;;-1.00;99.90;;;-2.06;100.00;102426.47;4178569;28;20092;-72
2023/02/28 05:29:45;;;;;;;11.82;8.05;;;-1.00;99.90;;;-2.04;100.00;102429.88;4168097;28;20021;-73
2023/02/28 05:31:46;;;;;;;11.75;8.35;;;-1.00;99.90;;;-2.08;100.00;102429.09;4169573;28;20040;-72
2023/02/28 05:33:47;;;;;;;11.73;7.22;;;-1.00;99.90;;;-2.10;100.00;102433.44;4162458;28;20033;-73
2023/02/28 05:35:48;;;;;;;20.10;8.27;;;-1.00;99.90;;;-2.14;100.00;102428.38;4184350;28;20037;-73
2023/02/28 05:37:49;;;;;;;13.35;8.38;;;-1.10;99.90;;;-2.13;100.00;102435.25;4172662;28;20033;-73
2023/02/28 05:39:50;;;;;;;16.33;8.73;;;-1.10;99.90;;;-2.15;100.00;102431.84;4171469;28;20143;-73
2023/02/28 05:41:51;;;;;;;14.05;8.57;;;-1.10;99.90;;;-2.12;100.00;102434.38;4168883;28;20028;-73
2023/02/28 05:43:51;;;;;;;16.83;8.55;;;-1.10;99.90;;;-2.17;100.00;102433.59;4168880;28;20037;-73
2023/02/28 05:45:52;;;;;;;12.10;8.68;;;-1.10;99.90;;;-2.09;100.00;102431.72;4167888;28;20025;-73
2023/02/28 05:47:54;;;;;;;14.07;8.93;;;-1.10;99.90;;;-2.06;100.00;102442.81;4190762;28;20036;-73
2023/02/28 05:49:55;;;;;;;12.27;8.18;;;-1.00;99.90;;;-2.07;100.00;102451.47;4168909;28;20025;-73
2023/02/28 05:51:56;;;;;;;16.02;8.68;;;-1.00;99.90;;;-2.05;100.00;102441.09;4168784;28;20156;-73
2023/02/28 05:54:01;;;;;;;14.45;9.23;;;-1.00;99.90;;;-2.02;100.00;102451.34;4171276;28;20504;-72
2023/02/28 05:56:02;;;;;;;13.00;7.72;;;-1.00;99.90;;;-1.99;100.00;102451.28;4184059;28;20033;-73
2023/02/28 05:58:03;;;;;;;16.85;9.50;;;-0.90;99.90;;;-1.98;100.00;102455.59;4171775;28;20489;-73
2023/02/28 06:00:05;;;;;;;13.85;8.40;;;-0.90;99.90;;;-2.01;100.00;102455.66;4168799;28;20040;-73
2023/02/28 06:02:11;;;;;;;12.27;8.50;;;-0.90;99.90;;;-1.97;100.00;102458.13;4168842;28;20110;-73
2023/02/28 06:04:14;;;;;;;15.68;9.68;;;-0.90;99.90;;;-1.97;100.00;102454.72;4167610;28;20029;-73
2023/02/28 06:06:16;;;;;;;17.85;8.75;;;-0.90;99.90;;;-1.99;100.00;102451.28;4168759;28;20026;-73
2023/02/28 06:08:17;;;;;;;16.63;9.73;;;-0.90;99.90;;;-1.99;100.00;102456.47;4169015;28;20034;-73
2023/02/28 06:10:18;;;;;;;13.65;8.60;;;-0.90;99.90;;;-1.96;100.00;102459.84;4167796;28;20413;-73
2023/02/28 06:12:19;;;;;;;13.77;8.68;;;-0.90;99.90;;;-1.95;100.00;102455.53;4168493;28;20030;-73
2023/02/28 06:14:20;;;;;;;12.27;8.10;;;-0.90;99.90;;;-2.00;100.00;102463.38;4183793;28;20021;-73
2023/02/28 06:16:21;;;;;;;12.40;8.48;;;-0.90;99.90;;;-2.02;100.00;102457.38;4167428;28;20409;-73
2023/02/28 06:18:22;;;;;;;14.75;10.05;;;-0.90;99.90;;;-2.01;100.00;102471.16;4179494;28;20026;-73
2023/02/28 06:20:28;;;;;;;16.10;9.93;;;-1.00;99.90;;;-2.04;100.00;102460.91;4167613;28;20128;-73
2023/02/28 06:22:29;;;;;;;15.52;9.50;;;-1.00;99.90;;;-2.05;100.00;102460.03;4167451;28;20105;-73
2023/02/28 06:24:31;;;;;;;11.30;8.15;;;-1.00;99.90;;;-2.08;100.00;102452.34;4167330;28;20085;-72
2023/02/28 06:26:32;;;;;;;10.77;7.72;;;-1.00;99.90;;;-2.09;100.00;102454.97;4167223;28;20055;-73
2023/02/28 06:28:33;;;;;;;16.70;9.65;;;-1.00;99.90;;;-2.12;100.00;102455.06;4176999;28;20091;-73
2023/02/28 06:30:34;;;;;;;13.48;9.00;;;-1.00;99.90;;;-2.09;100.00;102460.16;4168322;28;20041;-73
2023/02/28 06:32:35;;;;;;;14.07;8.52;;;-1.10;99.90;;;-2.14;100.00;102464.56;4168798;28;20029;-73
2023/02/28 06:34:36;;;;;;;17.17;8.95;;;-1.10;99.90;;;-2.09;100.00;102463.56;4168650;28;20025;-73
2023/02/28 06:36:38;;;;;;;12.90;9.13;;;-1.00;99.90;;;-2.10;100.00;102461.03;4169182;28;20040;-73
2023/02/28 06:38:40;;;;;;;13.07;8.40;;;-1.00;99.90;;;-2.13;100.00;102464.53;4173473;28;20071;-73
2023/02/28 06:40:42;;;;;;;14.70;10.25;;;-1.00;99.90;;;-2.10;100.00;102469.63;4167222;28;20025;-73
2023/02/28 06:42:43;;;;;;;13.25;9.05;;;-1.00;99.90;;;-2.08;100.00;102461.84;4166997;28;20080;-73
2023/02/28 06:44:44;;;;;;;16.30;9.73;;;-1.00;99.90;;;-2.09;100.00;102466.16;4167260;28;20112;-73
2023/02/28 06:46:45;;;;;;;14.93;9.38;;;-1.00;99.90;;;-2.10;100.00;102450.69;4170254;28;20033;-73
2023/02/28 06:48:46;;;;;;;13.93;9.68;;;-1.00;99.90;;;-2.12;100.00;102461.03;4170359;28;20029;-73
2023/02/28 06:50:47;;;;;;;14.98;9.55;;;-1.00;99.90;;;-2.14;100.00;102451.63;4168670;28;20025;-73
2023/02/28 06:52:53;;;;;;;16.52;9.18;;;-1.00;99.90;;;-2.13;100.00;102471.44;4167243;28;20038;-73
2023/02/28 06:54:59;;;;;;;17.92;9.82;;;-1.00;99.90;;;-2.14;100.00;102467.13;4177414;28;20429;-74
2023/02/28 06:57:00;;;;;;;16.92;9.52;;;-1.00;99.90;;;-2.14;100.00;102469.72;4174147;28;20030;-73
2023/02/28 06:59:01;;;;;;;21.38;10.80;;;-1.00;99.90;;;-2.12;100.00;102467.97;4168439;28;20108;-73
2023/02/28 07:01:03;;;;;;;16.52;10.30;;;-1.00;99.90;;;-2.05;100.00;102472.09;4167268;28;20048;-73
2023/02/28 07:03:04;;;;;;;15.45;9.65;;;-1.00;99.90;;;-2.00;100.00;102472.88;4167171;28;20461;-73
2023/02/28 07:05:06;;;;;;;16.65;10.63;;;-0.90;99.90;;;-1.90;100.00;102480.38;4167019;28;20057;-73
2023/02/28 07:07:07;;;;;;;15.05;9.82;;;-0.90;99.90;;;-1.88;100.00;102477.78;4177415;28;20053;-73
2023/02/28 07:09:08;;;;;;;17.33;10.48;;;-0.80;99.90;;;-1.88;100.00;102486.38;4171449;28;20397;-73
2023/02/28 07:11:08;;;;;;;16.55;10.32;;;-0.80;99.90;;;-1.88;100.00;102488.94;4171316;28;20076;-73
2023/02/28 07:13:10;;;;;;;15.50;10.75;;;-0.80;99.90;;;-1.87;100.00;102488.06;4171372;28;20038;-73
2023/02/28 07:15:11;;;;;;;15.93;9.40;;;-0.80;99.90;;;-1.89;100.00;102483.81;4171395;28;20030;-73
2023/02/28 07:17:12;;;;;;;18.55;10.30;;;-0.70;99.90;;;-1.89;100.00;102483.81;4173396;28;20048;-73
2023/02/28 07:19:13;;;;;;;16.10;10.02;;;-0.70;99.90;;;-1.84;100.00;102502.66;4170060;28;20022;-73
2023/02/28 07:21:15;;;;;;;16.20;10.20;;;-0.80;99.90;;;-1.82;100.00;102503.47;4171107;28;20053;-73
2023/02/28 07:23:16;;;;;;;20.25;11.18;;;-0.70;99.90;;;-1.77;100.00;102501.66;4182987;28;20053;-73
2023/02/28 07:25:17;;;;;;;16.98;11.77;;;-0.70;99.90;;;-1.76;100.00;102503.34;4186482;28;20040;-73
2023/02/28 07:27:23;;;;;;;16.70;10.70;;;-0.70;99.90;;;-1.78;100.00;102505.13;4170523;28;20524;-73
2023/02/28 07:29:24;;;;;;;13.80;10.18;;;-0.70;99.90;;;-1.75;100.00;102505.03;4169991;28;20564;-74
2023/02/28 07:31:25;;;;;;;16.38;11.60;;;-0.60;99.90;;;-1.70;100.00;102508.38;4170057;28;20061;-73
2023/02/28 07:33:26;;;;;;;15.98;10.35;;;-0.60;99.90;;;-1.64;100.00;102515.16;4173492;28;20028;-73
2023/02/28 07:35:27;;;;;;;15.48;10.20;;;-0.60;99.90;;;-1.63;100.00;102512.53;4170971;28;20025;-73
2023/02/28 07:37:31;;;;;;;18.45;11.23;;;-0.60;99.90;;;-1.63;100.00;102511.69;4181432;28;20017;-73
2023/02/28 07:39:32;;;;;;;14.88;10.02;;;-0.50;99.90;;;-1.58;100.00;102512.44;4169593;28;20083;-73
2023/02/28 07:41:33;;;;;;;15.38;10.23;;;-0.50;99.90;;;-1.52;100.00;102518.31;4171446;28;20120;-73
2023/02/28 07:43:35;;;;;;;17.80;11.55;;;-0.50;99.90;;;-1.48;100.00;102522.53;4174320;28;20021;-73
2023/02/28 07:45:36;;;;;;;18.23;10.82;;;-0.40;99.90;;;-1.43;100.00;102512.06;4168918;28;20025;-73
2023/02/28 07:47:42;;;;;;;19.70;11.63;;;-0.40;99.90;;;-1.35;100.00;102520.50;4178567;28;20057;-73
2023/02/28 07:49:44;;;;;;;15.05;11.35;;;-0.30;99.90;;;-1.35;100.00;102523.09;4169102;28;20033;-73
2023/02/28 07:51:45;;;;;;;18.83;11.50;;;-0.30;99.90;;;-1.32;100.00;102516.09;4169552;28;20022;-73
2023/02/28 07:53:46;;;;;;;16.48;11.30;;;-0.20;99.90;;;-1.25;100.00;102517.66;4170521;28;20037;-73
2023/02/28 07:55:47;;;;;;;16.60;11.90;;;-0.20;99.90;;;-1.16;100.00;102524.31;4185797;28;20194;-73
2023/02/28 07:57:48;;;;;;;18.80;11.15;;;-0.10;99.90;;;-1.15;100.00;102518.28;4171873;28;20025;-73
2023/02/28 07:59:49;;;;;;;18.40;10.93;;;-0.10;99.90;;;-1.11;100.00;102522.50;4169326;28;20028;-73
2023/02/28 08:01:50;;;;;;;16.48;10.52;;;0.00;99.90;;;-1.09;100.00;102522.44;4170567;28;20167;-74
2023/02/28 08:03:51;;;;;;;18.13;11.88;;;0.00;99.90;;;-1.04;100.00;102526.63;4169472;28;20093;-73
2023/02/28 08:05:52;;;;;;;17.02;10.70;;;0.10;99.90;;;-1.01;100.00;102515.31;4185742;28;20025;-73
2023/02/28 08:07:53;;;;;;;16.13;10.85;;;0.10;99.90;;;-0.95;100.00;102518.63;4174782;28;20025;-73
2023/02/28 08:09:54;;;;;;;17.10;11.48;;;0.20;99.90;;;-0.89;100.00;102521.03;4169405;28;20030;-74
2023/02/28 08:11:55;;;;;;;19.33;10.82;;;0.20;99.90;;;-0.85;99.69;102516.63;4169104;28;20037;-73
2023/02/28 08:13:56;;;;;;;15.05;10.98;;;0.20;99.90;;;-0.73;99.30;102534.47;4169244;28;20037;-73
2023/02/28 08:15:57;;;;;;;19.13;11.18;;;0.30;99.90;;;-0.72;99.04;102528.41;4170296;28;20068;-73
2023/02/28 08:17:58;;;;;;;17.08;11.65;;;0.40;99.90;;;-0.69;98.59;102529.13;4171194;28;20079;-73
2023/02/28 08:19:59;;;;;;;16.80;11.07;;;0.40;99.90;;;-0.56;97.81;102548.66;4169187;28;20032;-73
2023/02/28 08:22:00;;;;;;;16.60;11.13;;;0.50;99.90;;;-0.52;97.62;102538.22;4169372;28;20029;-73
2023/02/28 08:24:01;;;;;;;19.45;11.65;;;0.60;99.90;;;-0.33;97.16;102542.84;4170233;28;20036;-73
2023/02/28 08:26:03;;;;;;;18.75;11.38;;;0.60;99.90;;;-0.34;96.26;102546.34;4169789;28;20397;-73
2023/02/28 08:28:04;;;;;;;20.23;11.70;;;0.70;99.90;;;-0.31;96.44;102548.00;4172063;28;20060;-74
2023/02/28 08:30:06;;;;;;;16.88;10.95;;;0.70;99.90;;;-0.28;96.13;102546.16;4185287;28;20126;-74
2023/02/28 08:32:07;;;;;;;16.15;10.90;;;0.80;99.90;;;-0.23;96.16;102543.44;4186124;28;20032;-73
2023/02/28 08:34:12;;;;;;;17.50;12.45;;;0.80;99.90;;;-0.20;95.71;102548.53;4173007;28;20084;-73
2023/02/28 08:36:13;;;;;;;16.45;10.93;;;0.90;99.90;;;-0.13;95.34;102540.56;4170072;28;20109;-73